createdAt,value
2023-03-24T00:31:21.220Z,100818.86
2023-03-24T00:37:15.684Z,100823.48
2023-03-24T00:40:21.714Z,100823.56
2023-03-24T03:02:24.981Z,100871.17
2023-03-24T03:05:14.015Z,100873.45
2023-03-24T03:07:42.420Z,100877.50
2023-03-24T03:10:41.124Z,100882.61
2023-03-24T03:14:20.130Z,100871.17
2023-03-24T03:17:56.690Z,100872.88
2023-03-24T03:25:31.700Z,100874.42
2023-03-24T03:36:33.433Z,100874.77
2023-03-24T04:03:27.753Z,100869.51
2023-03-24T04:06:50.467Z,100870.14
2023-03-24T04:09:27.943Z,100873.83
2023-03-24T04:12:37.682Z,100871.34
2023-03-24T04:15:42.020Z,100874.70
2023-03-24T04:28:27.525Z,100878.31
2023-03-24T04:31:56.196Z,100887.83
2023-03-24T04:35:01.295Z,100887.63
2023-03-24T04:37:53.420Z,100897.13
2023-03-24T04:40:36.604Z,100894.86
2023-03-24T04:43:13.223Z,100893.58
2023-03-24T04:46:16.430Z,100886.10
2023-03-24T04:49:14.585Z,100882.10
2023-03-24T04:51:44.200Z,100879.92
2023-03-24T04:54:28.364Z,100879.91
2023-03-24T04:57:06.052Z,100874.70
2023-03-24T04:59:46.118Z,100874.89
2023-03-24T05:02:15.195Z,100877.54
2023-03-24T05:05:11.490Z,100879.27
2023-03-24T05:07:49.136Z,100880.27
2023-03-24T05:10:19.022Z,100882.73
2023-03-24T05:12:58.807Z,100890.52
2023-03-24T05:15:52.456Z,100890.15
2023-03-24T05:18:35.888Z,100895.70
2023-03-24T05:33:56.992Z,100883.20
2023-03-24T05:44:58.601Z,100888.71
2023-03-24T05:47:39.204Z,100885.20
2023-03-24T05:50:21.417Z,100883.14
2023-03-24T05:53:29.156Z,100884.77
2023-03-24T05:56:20.931Z,100887.41
2023-03-24T06:09:40.883Z,100885.50
2023-03-24T06:12:11.220Z,100897.80
2023-03-24T06:14:40.408Z,100894.13
2023-03-24T06:20:19.347Z,100891.80
2023-03-24T06:23:10.447Z,100900.34
2023-03-24T06:26:46.400Z,100906.55
2023-03-24T06:33:08.213Z,100905.14
2023-03-24T07:32:21.757Z,100877.92
2023-03-24T07:34:53.652Z,100873.71
2023-03-24T07:37:27.774Z,100871.20
2023-03-24T07:40:01.793Z,100869.36
2023-03-24T07:42:33.502Z,100867.20
2023-03-24T07:45:34.738Z,100867.67
2023-03-24T07:48:05.840Z,100863.73
2023-03-24T07:58:33.693Z,100855.67
2023-03-24T08:09:31.901Z,100853.92
2023-03-24T08:12:04.364Z,100855.54
2023-03-24T08:14:44.971Z,100853.36
2023-03-24T08:17:13.178Z,100851.84
2023-03-24T08:19:58.988Z,100846.83
2023-03-24T08:22:56.863Z,100845.73
2023-03-24T08:34:00.631Z,100850.08
2023-03-24T08:36:35.529Z,100842.48
2023-03-24T08:39:06.075Z,100845.20
2023-03-24T08:41:36.258Z,100846.39
2023-03-24T08:44:07.358Z,100841.52
2023-03-24T08:46:35.303Z,100847.80
2023-03-24T08:49:16.572Z,100846.86
2023-03-24T08:58:24.358Z,100852.86
2023-03-24T09:00:55.451Z,100855.77
2023-03-24T09:03:24.543Z,100852.94
2023-03-24T09:05:56.735Z,100860.22
2023-03-24T09:08:24.546Z,100867.11
2023-03-24T09:10:52.911Z,100866.08
2023-03-24T09:13:20.872Z,100858.66
2023-03-24T09:15:56.354Z,100836.13
2023-03-24T09:19:15.587Z,100831.57
2023-03-24T09:21:45.161Z,100837.90
2023-03-24T09:24:15.200Z,100838.63
2023-03-24T09:26:43.078Z,100837.20
2023-03-24T09:29:10.931Z,100833.52
2023-03-24T09:31:40.766Z,100834.27
2023-03-24T09:34:08.280Z,100831.75
2023-03-24T09:36:37.885Z,100830.87
2023-03-24T09:39:15.017Z,100827.75
2023-03-24T09:41:47.592Z,100821.20
2023-03-24T09:44:45.222Z,100814.98
2023-03-24T10:03:25.652Z,100811.10
2023-03-24T10:06:05.411Z,100811.08
2023-03-24T10:08:54.783Z,100809.36
2023-03-24T10:11:35.341Z,100809.03
2023-03-24T10:14:22.374Z,100811.45
2023-03-24T10:16:57.376Z,100811.17
2023-03-24T10:19:44.198Z,100807.75
2023-03-24T10:23:00.574Z,100798.77
2023-03-24T10:25:41.055Z,100793.20
2023-03-24T10:28:35.170Z,100786.52
2023-03-24T10:33:54.130Z,100780.67
2023-03-24T10:36:34.506Z,100775.44
2023-03-24T10:39:44.773Z,100772.59
2023-03-24T10:42:27.458Z,100770.81
2023-03-24T10:48:48.239Z,100765.77
2023-03-24T10:51:22.808Z,100760.13
2023-03-24T10:53:50.880Z,100760.21
2023-03-24T10:56:39.337Z,100765.20
2023-03-24T10:59:33.350Z,100761.54
2023-03-24T11:02:10.113Z,100756.45
2023-03-24T11:04:40.202Z,100752.23
2023-03-24T11:07:19.938Z,100749.35
2023-03-24T11:10:01.384Z,100753.98
2023-03-24T11:12:38.110Z,100751.94
2023-03-24T11:15:22.012Z,100749.23
2023-03-24T11:17:57.044Z,100745.96
2023-03-24T11:20:41.138Z,100746.20
2023-03-24T11:23:13.577Z,100743.16
2023-03-24T11:25:43.694Z,100738.31
2023-03-24T11:28:23.474Z,100734.59
2023-03-24T11:30:54.334Z,100726.82
2023-03-24T11:33:36.446Z,100719.58
2023-03-24T11:39:38.592Z,100721.48
2023-03-24T11:42:18.689Z,100725.11
2023-03-24T11:44:51.745Z,100723.55
2023-03-24T11:47:33.558Z,100717.64
2023-03-24T11:50:10.486Z,100715.99
2023-03-24T11:52:49.052Z,100716.08
2023-03-24T11:55:28.511Z,100707.80
2023-03-24T11:58:02.149Z,100710.95
2023-03-24T12:01:03.796Z,100703.02
2023-03-24T12:03:51.757Z,100697.48
2023-03-24T12:07:08.713Z,100692.67
2023-03-24T12:09:51.644Z,100693.27
2023-03-24T12:12:43.185Z,100692.61
2023-03-24T12:15:27.394Z,100692.55
2023-03-24T12:18:02.470Z,100692.96
2023-03-24T12:20:37.368Z,100690.08
2023-03-24T12:23:07.082Z,100690.30
2023-03-24T12:25:58.529Z,100690.31
2023-03-24T12:28:54.866Z,100689.19
2023-03-24T12:31:52.439Z,100687.81
2023-03-24T12:34:38.983Z,100680.74
2023-03-24T12:37:13.569Z,100679.01
2023-03-24T12:39:56.939Z,100687.24
2023-03-24T12:42:24.481Z,100685.58
2023-03-24T12:45:31.735Z,100680.33
2023-03-24T12:48:21.083Z,100678.92
2023-03-24T12:51:13.384Z,100681.83
2023-03-24T12:54:05.937Z,100676.58
2023-03-24T12:56:48.146Z,100676.63
2023-03-24T12:59:48.359Z,100673.19
2023-03-24T13:02:28.267Z,100667.40
2023-03-24T13:05:08.975Z,100662.69
2023-03-24T13:07:46.888Z,100668.91
2023-03-24T13:10:39.958Z,100663.52
2023-03-24T13:13:23.617Z,100660.60
2023-03-24T13:15:56.873Z,100654.58
2023-03-24T13:19:01.744Z,100655.17
2023-03-24T13:24:33.306Z,100646.41
2023-03-24T13:27:39.673Z,100643.80
2023-03-24T13:30:52.469Z,100640.92
2023-03-24T13:33:56.391Z,100636.95
2023-03-24T13:36:59.866Z,100637.98
2023-03-24T13:39:30.692Z,100637.39
2023-03-24T13:41:58.794Z,100632.16
2023-03-24T13:44:38.702Z,100636.70
2023-03-24T13:47:16.430Z,100636.27
2023-03-24T13:50:12.278Z,100635.48
2023-03-24T13:52:48.983Z,100636.92
2023-03-24T13:55:30.228Z,100635.34
2023-03-24T13:58:01.262Z,100632.66
2023-03-24T14:41:46.969Z,100584.98
2023-03-24T14:44:16.211Z,100590.41
2023-03-24T14:46:47.460Z,100594.08
2023-03-24T14:49:37.483Z,100592.30
2023-03-24T14:52:14.050Z,100595.50
2023-03-24T14:54:51.188Z,100597.02
2023-03-24T14:57:41.607Z,100586.33
2023-03-24T15:01:08.146Z,100590.22
2023-03-24T20:59:32.676Z,100681.73
2023-03-24T21:09:36.277Z,100684.27
2023-03-24T21:12:36.163Z,100682.27
2023-03-24T21:16:51.675Z,100679.23
2023-03-24T21:25:46.451Z,100671.70
2023-03-24T21:28:20.435Z,100666.69
2023-03-24T21:30:58.823Z,100664.02
2023-03-24T21:33:28.481Z,100663.79
2023-03-24T21:42:30.324Z,100667.89
2023-03-24T21:44:57.687Z,100669.95
2023-03-24T21:47:34.585Z,100669.89
2023-03-24T21:50:12.211Z,100662.19
2023-03-24T21:53:00.396Z,100667.92
2023-03-24T21:55:28.204Z,100662.49
2023-03-24T21:57:56.438Z,100659.11
2023-03-24T22:00:44.995Z,100656.63
2023-03-24T22:06:37.704Z,100663.58
2023-03-24T22:12:15.624Z,100672.29
2023-03-24T22:15:24.514Z,100669.38
2023-03-24T22:18:13.183Z,100668.33
2023-03-24T22:25:01.079Z,100671.98
2023-03-24T22:31:00.508Z,100674.84
2023-03-24T22:37:00.956Z,100670.48
2023-03-24T22:42:29.955Z,100667.40
2023-03-24T22:44:58.254Z,100666.86
2023-03-24T22:47:30.130Z,100664.86
2023-03-24T22:50:42.560Z,100667.23
2023-03-24T22:53:40.736Z,100666.60
2023-03-24T22:56:31.635Z,100662.02
2023-03-24T22:59:11.516Z,100656.63
2023-03-24T23:05:10.634Z,100663.35
2023-03-24T23:11:59.381Z,100666.80
2023-03-24T23:14:31.502Z,100663.48
2023-03-24T23:21:11.022Z,100667.46
2023-03-24T23:24:18.158Z,100667.27
2023-03-24T23:27:11.837Z,100658.45
2023-03-24T23:30:01.255Z,100658.58
2023-03-24T23:32:37.914Z,100660.25
2023-03-24T23:50:06.241Z,100651.75
2023-03-24T23:53:15.012Z,100648.23
2023-03-24T23:56:01.777Z,100651.91
2023-03-24T23:59:25.406Z,100655.64
